Time;durP1;ratioP1;P1;durP2;ratioP2;P2;SDS_P1;SDS_P2;PMS_P1;PMS_P2;Temp;Humidity;BMP_temperature;BMP_pressure;BME280_temperature;BME280_humidity;BME280_pressure;Samples;Min_cycle;Max_cycle;Signal;HPM_P1;HPM_P2
2021/10/07 00:01:25;;;;;;;1.05;0.80;;;12.10;77.90;;;;;;5055471;28;20115;-65
2021/10/07 00:03:54;;;;;;;0.60;0.60;;;12.10;77.90;;;;;;5056574;28;20120;-65
2021/10/07 00:06:20;;;;;;;0.65;0.50;;;12.10;77.70;;;;;;5055273;28;20033;-65
2021/10/07 00:08:46;;;;;;;1.25;0.80;;;12.10;77.70;;;;;;5056834;28;20039;-65
2021/10/07 00:11:12;;;;;;;1.65;0.80;;;12.10;77.70;;;;;;5055525;28;20040;-65
2021/10/07 00:13:39;;;;;;;1.17;0.70;;;12.10;77.50;;;;;;5057515;28;20538;-65
2021/10/07 00:16:05;;;;;;;1.77;0.70;;;12.00;77.50;;;;;;5056671;28;20025;-66
2021/10/07 00:18:36;;;;;;;2.25;0.57;;;12.00;77.80;;;;;;5058984;28;20036;-65
2021/10/07 00:21:03;;;;;;;0.63;0.50;;;12.00;78.00;;;;;;5058010;28;20060;-65
2021/10/07 00:23:31;;;;;;;0.70;0.70;;;12.00;78.00;;;;;;5054819;28;20036;-65
2021/10/07 00:25:57;;;;;;;1.40;1.13;;;12.00;78.00;;;;;;5056002;28;20591;-65
2021/10/07 00:28:23;;;;;;;2.90;1.20;;;12.00;78.00;;;;;;5057162;28;20033;-65
2021/10/07 00:30:50;;;;;;;0.93;0.82;;;12.00;78.00;;;;;;5055467;28;20109;-66
2021/10/07 00:33:27;;;;;;;1.48;1.00;;;12.10;78.10;;;;;;5056999;28;20154;-65
2021/10/07 00:39:21;;;;;;;1.48;1.15;;;12.00;78.30;;;;;;5054751;28;20056;-65
2021/10/07 00:41:22;;;;;;;2.10;1.10;;;12.10;78.40;;;;;;5053444;28;20037;-65
2021/10/07 00:43:48;;;;;;;2.60;0.93;;;12.10;78.40;;;;;;5055093;28;20276;-65
2021/10/07 00:46:13;;;;;;;1.30;0.90;;;12.10;78.30;;;;;;5057495;28;20048;-66
2021/10/07 00:48:39;;;;;;;1.33;0.70;;;12.10;78.20;;;;;;5054239;28;20037;-65
2021/10/07 00:51:05;;;;;;;1.50;0.70;;;12.00;78.00;;;;;;5055943;28;20040;-66
2021/10/07 00:53:30;;;;;;;1.92;0.95;;;12.00;78.00;;;;;;5055599;28;20597;-65
2021/10/07 00:56:00;;;;;;;1.52;0.70;;;12.00;78.10;;;;;;5049346;28;20031;-65
2021/10/07 00:58:25;;;;;;;1.15;0.80;;;12.00;78.20;;;;;;5052177;28;20029;-65
2021/10/07 01:00:52;;;;;;;1.65;0.63;;;12.00;78.20;;;;;;5050070;28;20028;-65
2021/10/07 01:03:18;;;;;;;1.42;0.90;;;12.00;78.30;;;;;;5054147;28;20029;-64
2021/10/07 01:05:44;;;;;;;1.50;1.10;;;12.00;78.40;;;;;;5050726;28;20447;-65
2021/10/07 01:08:10;;;;;;;1.00;0.90;;;12.00;78.50;;;;;;5053854;28;20120;-66
2021/10/07 01:10:35;;;;;;;2.30;1.10;;;12.00;78.60;;;;;;5049946;28;20025;-66
2021/10/07 01:13:02;;;;;;;2.47;1.10;;;12.00;78.60;;;;;;5055544;28;20036;-65
2021/10/07 01:15:28;;;;;;;2.75;1.02;;;11.90;78.60;;;;;;5051864;28;20029;-66
2021/10/07 01:17:54;;;;;;;3.85;1.00;;;11.90;78.60;;;;;;5050548;28;20120;-65
2021/10/07 01:20:19;;;;;;;1.98;1.10;;;11.90;78.50;;;;;;5050391;28;20093;-66
2021/10/07 01:22:45;;;;;;;2.20;1.20;;;11.90;78.60;;;;;;5049017;28;20045;-65
2021/10/07 01:25:11;;;;;;;1.17;1.08;;;11.90;78.60;;;;;;5053226;28;20115;-65
2021/10/07 01:27:37;;;;;;;0.95;0.90;;;11.90;79.50;;;;;;5051684;28;20048;-65
2021/10/07 01:30:09;;;;;;;2.13;1.10;;;11.90;78.70;;;;;;5051260;28;20492;-65
2021/10/07 01:32:36;;;;;;;1.70;1.17;;;11.90;79.10;;;;;;5052614;28;20028;-66
2021/10/07 01:35:04;;;;;;;1.92;1.23;;;11.90;79.00;;;;;;5045097;28;20087;-65
2021/10/07 01:37:30;;;;;;;1.30;1.13;;;11.90;78.90;;;;;;5043375;28;20033;-65
2021/10/07 01:39:56;;;;;;;1.42;1.20;;;11.90;78.70;;;;;;5044343;28;20629;-65
2021/10/07 01:42:22;;;;;;;3.20;1.30;;;11.90;78.70;;;;;;5047953;28;20040;-65
2021/10/07 01:44:47;;;;;;;1.80;1.27;;;11.90;78.80;;;;;;5049589;28;20037;-65
2021/10/07 01:47:13;;;;;;;1.55;1.13;;;11.90;78.80;;;;;;5048097;28;20090;-65
2021/10/07 01:49:39;;;;;;;1.50;1.40;;;11.90;78.90;;;;;;5052318;28;20503;-65
2021/10/07 01:52:05;;;;;;;1.52;1.30;;;11.90;79.00;;;;;;5049291;28;20052;-65
2021/10/07 01:54:31;;;;;;;2.10;1.45;;;11.90;79.10;;;;;;5052644;28;20057;-65
2021/10/07 01:56:56;;;;;;;1.70;1.40;;;11.90;79.20;;;;;;5052434;28;20036;-65
2021/10/07 01:59:22;;;;;;;1.88;1.40;;;11.90;79.30;;;;;;5053987;28;20037;-65
2021/10/07 02:01:47;;;;;;;2.63;1.50;;;11.90;79.50;;;;;;5049726;28;20456;-65
2021/10/07 02:04:13;;;;;;;1.50;1.40;;;11.90;79.60;;;;;;5046997;28;20128;-65
2021/10/07 02:06:38;;;;;;;2.65;1.20;;;11.90;79.60;;;;;;5049610;28;20144;-65
2021/10/07 02:09:06;;;;;;;2.03;1.45;;;11.90;79.50;;;;;;5045688;28;20039;-65
2021/10/07 02:11:32;;;;;;;2.45;1.40;;;11.90;79.40;;;;;;5041733;28;20124;-66
2021/10/07 02:13:58;;;;;;;2.45;1.40;;;11.90;79.30;;;;;;5043088;28;20036;-65
2021/10/07 02:16:23;;;;;;;1.75;1.40;;;12.00;79.40;;;;;;5047381;28;20041;-65
2021/10/07 02:18:49;;;;;;;3.38;1.60;;;12.00;79.40;;;;;;5047739;28;20139;-65
2021/10/07 02:21:15;;;;;;;1.73;1.63;;;11.90;79.30;;;;;;5047812;28;20067;-65
2021/10/07 02:23:40;;;;;;;1.83;1.67;;;12.00;80.20;;;;;;5052813;28;20070;-65
2021/10/07 02:26:06;;;;;;;1.85;1.70;;;11.90;79.30;;;;;;5053312;28;20492;-66
2021/10/07 02:28:32;;;;;;;2.78;1.88;;;12.00;79.40;;;;;;5053915;28;20033;-66
2021/10/07 02:30:58;;;;;;;1.63;1.52;;;11.90;79.30;;;;;;5049019;28;20492;-66
2021/10/07 02:33:24;;;;;;;2.35;1.70;;;11.90;79.20;;;;;;5050476;28;20029;-65
2021/10/07 02:35:50;;;;;;;2.88;1.70;;;11.90;79.20;;;;;;5050810;28;20025;-66
2021/10/07 02:38:15;;;;;;;3.60;1.65;;;12.00;79.20;;;;;;5052993;28;20415;-66
2021/10/07 02:40:41;;;;;;;2.28;1.83;;;12.00;79.20;;;;;;5054779;28;20028;-65
2021/10/07 02:43:06;;;;;;;1.83;1.73;;;12.00;79.10;;;;;;5047865;28;20586;-65
2021/10/07 02:45:32;;;;;;;1.92;1.60;;;11.90;78.90;;;;;;5043723;28;20025;-65
2021/10/07 02:47:58;;;;;;;1.70;1.60;;;11.90;78.90;;;;;;5044413;28;20094;-65
2021/10/07 02:50:26;;;;;;;3.13;1.98;;;11.90;78.90;;;;;;5044825;28;20127;-66
2021/10/07 02:52:52;;;;;;;2.17;1.98;;;11.90;78.90;;;;;;5047698;28;20036;-66
2021/10/07 02:55:17;;;;;;;4.03;1.95;;;11.90;78.90;;;;;;5050092;28;20097;-65
2021/10/07 02:57:45;;;;;;;2.40;2.10;;;12.00;78.90;;;;;;5048934;28;20041;-65
2021/10/07 03:00:12;;;;;;;2.33;1.90;;;11.90;78.90;;;;;;5053990;28;20086;-65
2021/10/07 03:02:38;;;;;;;1.98;1.73;;;11.90;79.00;;;;;;5053357;28;20071;-65
2021/10/07 03:05:04;;;;;;;1.55;1.45;;;11.90;79.10;;;;;;5054768;28;20045;-65
2021/10/07 03:07:30;;;;;;;2.85;1.60;;;11.90;79.10;;;;;;5053274;28;20040;-65
2021/10/07 03:09:56;;;;;;;1.83;1.52;;;11.90;78.90;;;;;;5058025;28;20029;-65
2021/10/07 03:12:22;;;;;;;2.70;1.67;;;11.90;78.90;;;;;;5051988;28;20090;-65
2021/10/07 03:14:47;;;;;;;1.75;1.65;;;11.90;78.90;;;;;;5056605;28;20500;-65
2021/10/07 03:17:13;;;;;;;2.42;1.70;;;11.90;78.90;;;;;;5052742;28;20036;-65
2021/10/07 03:19:40;;;;;;;2.33;1.80;;;11.90;79.10;;;;;;5046227;28;20044;-66
2021/10/07 03:22:06;;;;;;;2.35;1.90;;;11.90;79.10;;;;;;5046815;28;20033;-64
2021/10/07 03:24:34;;;;;;;8.10;4.40;;;11.90;79.30;;;;;;5056327;28;20111;-67
2021/10/07 03:27:01;;;;;;;5.82;3.67;;;11.90;79.30;;;;;;5056410;28;20033;-65
2021/10/07 03:29:27;;;;;;;4.18;2.50;;;11.90;79.30;;;;;;5056859;28;20029;-65
2021/10/07 03:31:53;;;;;;;3.05;2.28;;;11.90;79.30;;;;;;5055244;28;20035;-65
2021/10/07 03:34:18;;;;;;;2.15;2.05;;;11.90;79.10;;;;;;5049317;28;20045;-65
2021/10/07 03:36:44;;;;;;;2.72;1.98;;;11.90;79.20;;;;;;5053057;28;20029;-65
2021/10/07 03:39:09;;;;;;;2.50;2.30;;;11.90;79.40;;;;;;5047805;28;20033;-65
2021/10/07 03:41:35;;;;;;;2.40;2.17;;;11.80;79.40;;;;;;5055049;28;20036;-65
2021/10/07 03:44:01;;;;;;;3.97;2.38;;;11.80;79.60;;;;;;5050613;28;20121;-66
2021/10/07 03:46:26;;;;;;;2.40;2.20;;;11.80;79.60;;;;;;5051535;28;20043;-64
2021/10/07 03:48:52;;;;;;;2.53;2.30;;;11.80;79.80;;;;;;5046866;28;20608;-65
2021/10/07 03:51:19;;;;;;;3.03;2.28;;;11.80;79.80;;;;;;5048272;28;20068;-65
2021/10/07 03:53:44;;;;;;;2.50;2.30;;;11.80;79.90;;;;;;5050971;28;20032;-66
2021/10/07 03:56:10;;;;;;;2.85;2.40;;;11.90;79.90;;;;;;5056490;28;20036;-65
2021/10/07 03:58:36;;;;;;;2.10;1.90;;;11.90;79.80;;;;;;5054985;28;20039;-65
2021/10/07 04:01:02;;;;;;;2.28;2.08;;;11.90;79.80;;;;;;5054754;28;20029;-65
2021/10/07 04:03:28;;;;;;;3.58;2.40;;;11.90;79.80;;;;;;5051775;28;20029;-65
2021/10/07 04:05:55;;;;;;;2.40;2.20;;;11.90;79.80;;;;;;5049044;28;20419;-65
2021/10/07 04:08:22;;;;;;;2.50;2.15;;;11.90;79.80;;;;;;5051081;28;20037;-65
2021/10/07 04:10:51;;;;;;;2.60;2.40;;;11.90;79.70;;;;;;5047491;28;20037;-65
2021/10/07 04:13:23;;;;;;;2.40;2.00;;;11.90;79.80;;;;;;5051474;28;20509;-66
2021/10/07 04:15:50;;;;;;;2.40;2.20;;;11.90;79.80;;;;;;5055360;28;20041;-65
2021/10/07 04:18:17;;;;;;;2.30;2.00;;;11.90;79.60;;;;;;5053546;28;20024;-66
2021/10/07 04:20:44;;;;;;;2.75;2.33;;;11.90;79.70;;;;;;5046317;28;20134;-65
2021/10/07 04:23:10;;;;;;;3.30;2.30;;;11.90;79.80;;;;;;5047257;28;20044;-65
2021/10/07 04:25:36;;;;;;;2.40;2.20;;;11.90;79.80;;;;;;5052875;28;20105;-65
2021/10/07 04:28:06;;;;;;;2.90;2.60;;;11.90;79.80;;;;;;5054918;28;20043;-65
2021/10/07 04:30:34;;;;;;;3.67;2.80;;;12.00;79.90;;;;;;5052892;28;20039;-65
2021/10/07 04:33:03;;;;;;;3.22;2.67;;;11.90;79.80;;;;;;5055077;28;20037;-65
2021/10/07 04:35:29;;;;;;;2.70;2.50;;;11.90;79.80;;;;;;5049973;28;20068;-65
2021/10/07 04:37:55;;;;;;;2.67;2.38;;;11.90;79.60;;;;;;5049103;28;20475;-65
2021/10/07 04:40:21;;;;;;;2.83;2.25;;;11.90;79.60;;;;;;5051523;28;20484;-65
2021/10/07 04:42:47;;;;;;;2.63;2.42;;;11.90;79.80;;;;;;5055895;28;20089;-65
2021/10/07 04:45:12;;;;;;;3.00;2.53;;;11.90;79.90;;;;;;5056102;28;20081;-66
2021/10/07 04:47:38;;;;;;;3.92;2.78;;;11.90;80.00;;;;;;5054958;28;20540;-66
2021/10/07 04:50:05;;;;;;;4.57;2.65;;;11.90;80.00;;;;;;5054452;28;20064;-65
2021/10/07 04:52:31;;;;;;;3.08;2.78;;;11.90;80.10;;;;;;5054580;28;20043;-66
2021/10/07 04:54:57;;;;;;;3.10;2.80;;;11.80;80.00;;;;;;5055773;28;20033;-65
2021/10/07 04:57:22;;;;;;;4.05;3.05;;;11.80;79.90;;;;;;5056646;28;20136;-66
2021/10/07 04:59:48;;;;;;;15.88;11.07;;;11.80;79.80;;;;;;5056245;28;20041;-66
2021/10/07 05:02:14;;;;;;;15.73;10.75;;;11.80;79.90;;;;;;5054481;28;20087;-66
2021/10/07 05:04:39;;;;;;;5.32;4.40;;;11.80;79.90;;;;;;5056919;28;20024;-66
2021/10/07 05:07:05;;;;;;;4.07;3.67;;;11.80;79.90;;;;;;5056028;28;20079;-66
2021/10/07 05:09:31;;;;;;;4.22;3.55;;;11.80;80.00;;;;;;5055635;28;20037;-66
2021/10/07 05:11:56;;;;;;;4.03;3.13;;;11.80;80.10;;;;;;5049673;28;20079;-65
2021/10/07 05:14:22;;;;;;;4.95;4.03;;;11.80;80.10;;;;;;5056429;28;20130;-65
2021/10/07 05:16:47;;;;;;;4.68;4.20;;;11.80;80.30;;;;;;5057420;28;20112;-66
2021/10/07 05:19:13;;;;;;;4.72;4.30;;;11.80;80.30;;;;;;5056575;28;20051;-65
2021/10/07 05:21:39;;;;;;;6.25;3.70;;;11.80;80.20;;;;;;5052618;28;20037;-66
2021/10/07 05:24:05;;;;;;;3.90;3.60;;;11.80;80.20;;;;;;5055497;28;20025;-65
2021/10/07 05:26:30;;;;;;;4.78;4.05;;;11.80;80.10;;;;;;5055247;28;20033;-65
2021/10/07 05:28:56;;;;;;;5.03;4.45;;;11.80;80.10;;;;;;5055779;28;20029;-65
2021/10/07 05:31:21;;;;;;;4.80;4.03;;;11.80;80.30;;;;;;5055637;28;20449;-65
2021/10/07 05:33:47;;;;;;;5.28;4.07;;;11.80;80.30;;;;;;5055710;28;20515;-66
2021/10/07 05:36:13;;;;;;;6.63;3.85;;;11.80;80.30;;;;;;5055260;28;20524;-66
2021/10/07 05:38:39;;;;;;;4.20;3.80;;;11.80;80.30;;;;;;5051693;28;20040;-66
2021/10/07 05:41:05;;;;;;;4.78;3.80;;;11.80;80.30;;;;;;5057326;28;20025;-66
2021/10/07 05:43:31;;;;;;;4.50;3.47;;;11.80;80.30;;;;;;5054150;28;20029;-65
2021/10/07 05:45:56;;;;;;;5.57;4.28;;;11.90;80.30;;;;;;5056387;28;20036;-65
2021/10/07 05:48:22;;;;;;;4.00;3.63;;;11.80;80.20;;;;;;5052471;28;20033;-65
2021/10/07 05:50:48;;;;;;;4.00;3.60;;;11.80;80.20;;;;;;5033897;28;20032;-66
2021/10/07 05:53:13;;;;;;;6.80;5.10;;;11.80;80.10;;;;;;5033153;28;20033;-65
2021/10/07 05:55:39;;;;;;;5.60;5.00;;;11.80;80.10;;;;;;5034991;28;20243;-66
2021/10/07 05:58:05;;;;;;;4.50;4.10;;;11.90;80.20;;;;;;5033989;28;20087;-66
2021/10/07 06:00:30;;;;;;;5.35;4.80;;;11.90;80.10;;;;;;5035374;28;20556;-64
2021/10/07 06:02:56;;;;;;;6.15;4.28;;;11.90;80.10;;;;;;5033907;28;20041;-65
2021/10/07 06:05:22;;;;;;;4.30;3.88;;;11.90;80.10;;;;;;5035767;28;20033;-66
2021/10/07 06:07:47;;;;;;;4.03;3.63;;;11.90;80.20;;;;;;5027694;28;20405;-65
2021/10/07 06:10:14;;;;;;;4.13;3.65;;;11.90;80.10;;;;;;5034545;28;20029;-65
2021/10/07 06:12:41;;;;;;;5.07;3.70;;;11.90;80.00;;;;;;5033731;28;20079;-65
2021/10/07 06:15:08;;;;;;;3.78;3.40;;;12.00;80.10;;;;;;5036107;28;20028;-66
2021/10/07 06:17:34;;;;;;;3.88;3.47;;;12.00;80.00;;;;;;5036161;28;20040;-66
2021/10/07 06:20:15;;;;;;;4.15;3.75;;;12.00;80.00;;;;;;5035026;28;20044;-66
2021/10/07 06:22:41;;;;;;;5.45;4.07;;;12.00;79.90;;;;;;5034548;28;20040;-66
2021/10/07 06:25:07;;;;;;;4.85;4.30;;;12.00;79.80;;;;;;5032437;28;20028;-66
2021/10/07 06:27:33;;;;;;;5.30;4.20;;;12.00;79.90;;;;;;5038707;28;20037;-65
2021/10/07 06:29:59;;;;;;;5.72;3.80;;;11.90;80.00;;;;;;5038441;28;20040;-64
2021/10/07 06:32:24;;;;;;;6.88;3.90;;;11.90;80.00;;;;;;5036439;28;20337;-65
2021/10/07 06:34:50;;;;;;;6.00;4.60;;;11.90;80.10;;;;;;5037961;28;20045;-66
2021/10/07 06:37:15;;;;;;;6.38;4.97;;;12.00;80.30;;;;;;5036672;28;20040;-66
2021/10/07 06:39:41;;;;;;;7.78;5.57;;;12.00;80.30;;;;;;5034611;28;20112;-66
2021/10/07 06:42:07;;;;;;;6.45;5.20;;;12.00;80.10;;;;;;5038514;28;20045;-65
2021/10/07 06:44:32;;;;;;;10.93;6.18;;;12.00;80.10;;;;;;5038619;28;20033;-66
2021/10/07 06:46:58;;;;;;;9.65;5.25;;;12.00;80.10;;;;;;5056333;28;20549;-65
2021/10/07 06:49:24;;;;;;;8.18;4.78;;;12.00;80.10;;;;;;5054370;28;20029;-65
2021/10/07 06:51:49;;;;;;;8.20;4.60;;;11.90;80.10;;;;;;5058239;28;20539;-65
2021/10/07 06:54:15;;;;;;;4.90;4.35;;;12.00;80.30;;;;;;5058078;28;20142;-65
2021/10/07 06:56:41;;;;;;;8.43;4.60;;;12.00;80.50;;;;;;5058905;28;20099;-64
2021/10/07 06:59:06;;;;;;;5.55;4.90;;;12.00;80.60;;;;;;5059109;28;20033;-66
2021/10/07 07:01:32;;;;;;;4.95;4.32;;;12.00;81.50;;;;;;5058230;28;20033;-66
2021/10/07 07:03:58;;;;;;;5.30;4.30;;;12.00;80.60;;;;;;5057937;28;20028;-66
2021/10/07 07:06:25;;;;;;;7.75;4.93;;;12.00;80.60;;;;;;5056264;28;20032;-66
2021/10/07 07:08:51;;;;;;;6.13;4.38;;;12.00;80.60;;;;;;5057174;28;20252;-65
2021/10/07 07:11:17;;;;;;;6.57;5.00;;;12.00;80.60;;;;;;5051708;28;20039;-65
2021/10/07 07:13:44;;;;;;;6.85;4.72;;;12.10;80.80;;;;;;5059741;28;20041;-66
2021/10/07 07:16:10;;;;;;;5.90;5.30;;;12.10;80.80;;;;;;5054751;28;20446;-66
2021/10/07 07:18:36;;;;;;;7.03;4.75;;;12.10;80.70;;;;;;5056042;28;20040;-66
2021/10/07 07:21:02;;;;;;;8.25;5.03;;;12.20;80.70;;;;;;5057538;28;20041;-65
2021/10/07 07:23:28;;;;;;;7.68;4.88;;;12.20;80.60;;;;;;5055156;28;20566;-65
2021/10/07 07:25:54;;;;;;;5.20;4.60;;;12.20;80.50;;;;;;5058359;28;20144;-64
2021/10/07 07:28:20;;;;;;;7.53;5.20;;;12.20;80.50;;;;;;5057715;28;20083;-66
2021/10/07 07:30:48;;;;;;;7.18;5.50;;;12.30;80.60;;;;;;5056346;28;20032;-66
2021/10/07 07:33:15;;;;;;;6.10;5.20;;;12.30;80.50;;;;;;5057528;28;20024;-66
2021/10/07 07:35:41;;;;;;;5.20;4.70;;;12.40;80.30;;;;;;5057193;28;20095;-66
2021/10/07 07:38:06;;;;;;;5.38;4.72;;;12.40;80.50;;;;;;5055192;28;20450;-65
2021/10/07 07:40:34;;;;;;;5.22;4.63;;;12.30;81.20;;;;;;5055511;28;20121;-65
2021/10/07 07:43:00;;;;;;;5.55;5.00;;;12.40;81.10;;;;;;5056849;28;20040;-66
2021/10/07 07:45:26;;;;;;;5.38;4.88;;;12.40;80.10;;;;;;5056763;28;20033;-66
2021/10/07 07:47:52;;;;;;;6.50;5.10;;;12.40;80.10;;;;;;5056254;28;20996;-66
2021/10/07 07:50:19;;;;;;;5.80;4.75;;;12.40;80.10;;;;;;5058010;28;20091;-65
2021/10/07 07:52:48;;;;;;;6.32;5.20;;;12.50;80.00;;;;;;5054705;28;20045;-66
2021/10/07 07:55:15;;;;;;;5.25;4.78;;;12.50;80.00;;;;;;5056975;28;20036;-66
2021/10/07 07:57:40;;;;;;;4.97;4.57;;;12.50;80.20;;;;;;5055547;28;20508;-66
2021/10/07 08:00:07;;;;;;;6.45;4.75;;;12.60;80.30;;;;;;5056077;28;20083;-66
2021/10/07 08:02:33;;;;;;;6.05;5.45;;;12.60;80.00;;;;;;5049383;28;20306;-66
2021/10/07 08:04:58;;;;;;;7.75;5.22;;;12.60;79.60;;;;;;5055848;28;20046;-66
2021/10/07 08:07:24;;;;;;;5.10;4.60;;;12.60;79.50;;;;;;5056005;28;20562;-66
2021/10/07 08:09:50;;;;;;;6.25;5.47;;;12.70;79.60;;;;;;5054883;28;20029;-66
2021/10/07 08:12:16;;;;;;;5.95;5.45;;;12.70;79.70;;;;;;5048562;28;20040;-66
2021/10/07 08:14:43;;;;;;;6.25;5.65;;;12.70;79.40;;;;;;5056064;28;20120;-66
2021/10/07 08:17:09;;;;;;;6.72;6.13;;;12.80;79.30;;;;;;5056776;28;20048;-66
2021/10/07 08:19:36;;;;;;;7.15;5.35;;;12.80;79.10;;;;;;5057087;28;20512;-65
2021/10/07 08:22:02;;;;;;;6.10;5.43;;;12.80;79.00;;;;;;5052902;28;20544;-66
2021/10/07 08:24:28;;;;;;;6.82;5.90;;;12.80;79.20;;;;;;5051830;28;20037;-65
2021/10/07 08:26:53;;;;;;;7.25;6.18;;;12.90;79.50;;;;;;5055550;28;20097;-66
2021/10/07 08:29:19;;;;;;;8.15;5.88;;;12.90;79.60;;;;;;5056569;28;20579;-66
2021/10/07 08:31:45;;;;;;;6.72;6.07;;;13.00;79.50;;;;;;5055158;28;20036;-65
2021/10/07 08:34:10;;;;;;;6.80;5.78;;;13.00;79.30;;;;;;5056587;28;20029;-66
2021/10/07 08:36:42;;;;;;;6.82;6.07;;;13.10;79.10;;;;;;5052416;28;20033;-66
2021/10/07 08:39:09;;;;;;;7.38;6.55;;;13.10;78.70;;;;;;5055717;28;20033;-66
2021/10/07 08:41:35;;;;;;;7.22;6.53;;;13.20;78.60;;;;;;5056903;28;20557;-66
2021/10/07 08:44:02;;;;;;;5.88;5.38;;;13.20;78.40;;;;;;5053213;28;20036;-66
2021/10/07 08:46:28;;;;;;;8.20;5.90;;;13.20;78.50;;;;;;5052882;28;20454;-66
2021/10/07 08:48:54;;;;;;;6.85;6.20;;;13.20;78.40;;;;;;5053142;28;20029;-66
2021/10/07 08:51:20;;;;;;;6.20;5.68;;;13.20;78.50;;;;;;5055960;28;20041;-66
2021/10/07 08:53:46;;;;;;;6.03;5.43;;;13.30;78.30;;;;;;5054223;28;20054;-66
2021/10/07 08:56:11;;;;;;;5.78;5.28;;;13.30;78.10;;;;;;5056415;28;20036;-66
2021/10/07 08:58:37;;;;;;;5.30;4.80;;;13.30;78.00;;;;;;5052647;28;20056;-66
2021/10/07 09:01:05;;;;;;;5.80;5.20;;;13.30;78.00;;;;;;5053518;28;20032;-66
2021/10/07 09:03:30;;;;;;;5.65;5.13;;;13.30;77.90;;;;;;5055875;28;20052;-66
2021/10/07 09:06:12;;;;;;;6.75;5.28;;;13.30;77.90;;;;;;5054785;28;20067;-66
2021/10/07 09:08:46;;;;;;;6.18;5.57;;;13.30;77.90;;;;;;5052465;28;22176;-66
2021/10/07 09:11:27;;;;;;;6.10;5.40;;;13.40;77.90;;;;;;5051441;28;20537;-66
2021/10/07 09:14:07;;;;;;;6.45;5.70;;;13.40;77.90;;;;;;5052184;28;20054;-65
2021/10/07 09:16:48;;;;;;;6.72;5.85;;;13.40;78.00;;;;;;5054195;28;20036;-67
2021/10/07 09:19:26;;;;;;;5.15;4.65;;;13.40;78.10;;;;;;5054930;28;20024;-66
2021/10/07 09:21:55;;;;;;;6.15;5.10;;;13.50;77.70;;;;;;5070771;28;20036;-65
2021/10/07 09:24:34;;;;;;;6.93;4.80;;;13.60;77.70;;;;;;5054898;28;20040;-66
2021/10/07 09:27:06;;;;;;;7.28;4.22;;;13.60;77.50;;;;;;5055123;28;20563;-66
2021/10/07 09:29:49;;;;;;;6.35;4.38;;;13.70;77.50;;;;;;5049306;28;20031;-66
2021/10/07 09:32:29;;;;;;;4.30;3.90;;;13.80;77.50;;;;;;5055501;28;20061;-66
2021/10/07 09:34:57;;;;;;;4.88;3.83;;;13.90;76.50;;;;;;5035602;28;20381;-64
2021/10/07 09:37:31;;;;;;;3.92;3.53;;;14.00;76.10;;;;;;5036017;28;20504;-66
2021/10/07 09:39:59;;;;;;;4.28;3.65;;;14.10;75.40;;;;;;5032404;28;20045;-66
2021/10/07 09:42:32;;;;;;;3.85;3.55;;;14.10;75.60;;;;;;5031088;28;20165;-65
2021/10/07 09:45:09;;;;;;;3.67;3.38;;;14.20;75.30;;;;;;5033044;28;20029;-66
2021/10/07 09:47:50;;;;;;;3.55;3.15;;;14.30;74.80;;;;;;5036220;28;20032;-66
2021/10/07 09:50:29;;;;;;;4.90;3.17;;;14.30;74.50;;;;;;5033046;28;20068;-66
2021/10/07 09:53:13;;;;;;;3.35;3.05;;;14.40;74.10;;;;;;5035838;28;20075;-66
2021/10/07 09:55:49;;;;;;;3.35;2.72;;;14.40;73.30;;;;;;5032321;28;20025;-65
2021/10/07 09:58:15;;;;;;;3.20;2.38;;;14.40;73.00;;;;;;5035454;28;20025;-66
2021/10/07 10:00:55;;;;;;;2.75;2.38;;;14.40;73.30;;;;;;5027104;28;20028;-66
2021/10/07 10:03:22;;;;;;;3.40;2.60;;;14.40;72.60;;;;;;5033707;28;20064;-66
2021/10/07 10:05:49;;;;;;;3.15;2.80;;;14.50;73.00;;;;;;5036378;28;20048;-66
2021/10/07 10:08:18;;;;;;;3.28;2.97;;;14.50;73.10;;;;;;5033794;28;20029;-66
2021/10/07 10:10:45;;;;;;;2.58;2.38;;;14.50;72.90;;;;;;5029470;28;20061;-66
2021/10/07 10:13:13;;;;;;;2.20;2.00;;;14.50;73.20;;;;;;5032988;28;20056;-66
2021/10/07 10:15:39;;;;;;;2.30;1.92;;;14.50;72.90;;;;;;5029644;28;20041;-66
2021/10/07 10:18:08;;;;;;;3.90;2.47;;;14.50;72.90;;;;;;5034077;28;20509;-66
2021/10/07 10:20:38;;;;;;;2.63;2.20;;;14.60;72.70;;;;;;5033100;28;20485;-66
2021/10/07 10:23:09;;;;;;;3.15;2.55;;;14.60;72.50;;;;;;5033420;28;20084;-66
2021/10/07 10:26:13;;;;;;;2.33;2.13;;;14.60;71.70;;;;;;5033667;28;20033;-66
2021/10/07 10:28:42;;;;;;;3.00;2.55;;;14.60;71.10;;;;;;4973478;28;20096;-66
2021/10/07 10:31:10;;;;;;;2.58;2.35;;;14.60;71.80;;;;;;5027340;28;20025;-66
2021/10/07 10:33:43;;;;;;;2.75;2.55;;;14.60;71.60;;;;;;5054206;28;20032;-65
2021/10/07 10:36:33;;;;;;;3.58;2.08;;;14.60;71.80;;;;;;5055152;28;20036;-66
2021/10/07 10:39:23;;;;;;;1.83;1.48;;;14.60;71.40;;;;;;5032755;28;20043;-66
2021/10/07 10:41:59;;;;;;;1.58;1.45;;;14.70;70.50;;;;;;5033060;28;20080;-65
2021/10/07 10:44:27;;;;;;;1.70;1.50;;;14.70;70.70;;;;;;5034490;28;20068;-66
2021/10/07 10:47:08;;;;;;;1.98;1.65;;;14.80;70.60;;;;;;5030829;28;20041;-66
2021/10/07 10:52:41;;;;;;;1.85;1.75;;;14.80;70.00;;;;;;5032109;28;20041;-67
2021/10/07 10:55:11;;;;;;;2.25;1.73;;;14.70;69.20;;;;;;5032465;28;20029;-65
2021/10/07 10:57:44;;;;;;;1.90;1.80;;;14.70;69.70;;;;;;5033829;28;20038;-66
2021/10/07 11:00:25;;;;;;;2.15;1.80;;;14.70;69.60;;;;;;5033498;28;20032;-66
2021/10/07 11:02:54;;;;;;;2.08;1.90;;;14.70;69.10;;;;;;5030715;28;20591;-67
2021/10/07 11:05:25;;;;;;;2.20;2.00;;;14.70;70.10;;;;;;5035494;28;20053;-66
2021/10/07 11:08:09;;;;;;;5.90;1.85;;;14.80;70.20;;;;;;5034034;28;20037;-66
2021/10/07 11:10:40;;;;;;;2.22;2.03;;;14.80;69.70;;;;;;5027627;28;20064;-67
2021/10/07 11:13:14;;;;;;;2.50;2.30;;;14.80;70.10;;;;;;5034571;28;20385;-66
2021/10/07 11:15:39;;;;;;;2.92;2.30;;;14.90;70.10;;;;;;5036905;28;20078;-66
2021/10/07 11:18:05;;;;;;;2.47;2.28;;;14.90;70.30;;;;;;5035612;28;20044;-66
2021/10/07 11:20:33;;;;;;;3.22;2.47;;;14.90;70.20;;;;;;5037104;28;20029;-67
2021/10/07 11:23:09;;;;;;;2.45;2.28;;;14.90;69.90;;;;;;5036090;28;20045;-65
2021/10/07 11:25:49;;;;;;;2.90;2.30;;;15.00;70.00;;;;;;5036606;28;20029;-66
2021/10/07 11:28:17;;;;;;;3.08;2.30;;;14.90;69.90;;;;;;5036346;28;20404;-66
2021/10/07 11:30:45;;;;;;;3.20;2.15;;;15.00;70.00;;;;;;5036116;28;20041;-66
2021/10/07 11:33:11;;;;;;;3.10;2.50;;;15.00;70.00;;;;;;5034754;28;20040;-66
2021/10/07 11:35:37;;;;;;;2.25;1.85;;;15.00;70.00;;;;;;5037833;28;20037;-66
2021/10/07 11:38:07;;;;;;;2.13;1.90;;;15.00;70.20;;;;;;5035249;28;20455;-67
2021/10/07 11:40:44;;;;;;;2.65;2.40;;;15.00;70.00;;;;;;5037094;28;20630;-67
2021/10/07 11:43:18;;;;;;;3.03;2.17;;;15.10;69.70;;;;;;5034738;28;20409;-66
2021/10/07 11:46:05;;;;;;;2.33;2.13;;;15.10;69.60;;;;;;5037631;28;20045;-66
2021/10/07 11:48:31;;;;;;;2.40;2.20;;;15.20;69.50;;;;;;5035338;28;20568;-65
2021/10/07 11:51:02;;;;;;;2.50;2.30;;;15.20;69.80;;;;;;5037489;28;20116;-66
2021/10/07 11:53:33;;;;;;;4.28;2.33;;;15.20;69.70;;;;;;5036625;28;20057;-66
2021/10/07 11:56:01;;;;;;;2.63;2.42;;;15.20;69.50;;;;;;5038244;28;20044;-66
2021/10/07 11:58:28;;;;;;;3.00;2.40;;;15.20;69.90;;;;;;5037181;28;20512;-66
2021/10/07 12:00:54;;;;;;;3.25;2.50;;;15.30;70.00;;;;;;5038107;28;20032;-66
2021/10/07 12:03:28;;;;;;;2.60;2.10;;;15.30;69.70;;;;;;5037628;28;20045;-66
2021/10/07 12:06:15;;;;;;;2.23;2.03;;;15.40;69.30;;;;;;5037606;28;20030;-66
2021/10/07 12:08:44;;;;;;;2.50;2.25;;;15.40;68.40;;;;;;5037424;28;20025;-66
2021/10/07 12:11:13;;;;;;;2.92;2.40;;;15.50;69.10;;;;;;5035553;28;20136;-64
2021/10/07 12:13:40;;;;;;;2.63;2.42;;;15.50;69.60;;;;;;5038050;28;20475;-66
2021/10/07 12:16:16;;;;;;;2.65;2.45;;;15.50;68.80;;;;;;5038478;28;20287;-66
2021/10/07 12:18:48;;;;;;;2.92;2.50;;;15.50;68.40;;;;;;5038159;28;20041;-66
2021/10/07 12:21:19;;;;;;;2.80;2.60;;;15.50;68.60;;;;;;5038206;28;20370;-66
2021/10/07 12:23:49;;;;;;;2.80;2.50;;;15.50;68.60;;;;;;5037397;28;20029;-66
2021/10/07 12:26:32;;;;;;;4.97;2.67;;;15.60;68.50;;;;;;5038099;28;20382;-66
2021/10/07 12:29:00;;;;;;;2.50;2.30;;;15.60;67.10;;;;;;5037152;28;20108;-66
2021/10/07 12:31:31;;;;;;;2.35;2.15;;;15.60;68.00;;;;;;5037152;28;20497;-66
2021/10/07 12:34:09;;;;;;;2.35;2.22;;;15.60;67.60;;;;;;5037227;28;20516;-66
2021/10/07 12:36:49;;;;;;;2.40;2.20;;;15.60;67.00;;;;;;5036587;28;20049;-67
2021/10/07 12:39:25;;;;;;;2.60;2.30;;;15.60;67.10;;;;;;5037848;28;20030;-66
2021/10/07 12:41:55;;;;;;;2.75;2.40;;;15.70;67.40;;;;;;5036463;28;20029;-66
2021/10/07 12:44:29;;;;;;;1.83;1.73;;;15.70;67.40;;;;;;5036247;28;20067;-66
2021/10/07 12:46:57;;;;;;;2.13;1.90;;;15.70;66.90;;;;;;5037458;28;20420;-66
2021/10/07 12:49:35;;;;;;;1.80;1.70;;;15.70;67.40;;;;;;5036645;28;20182;-66
2021/10/07 12:52:01;;;;;;;1.92;1.70;;;15.70;66.90;;;;;;5037386;28;20388;-66
2021/10/07 12:54:29;;;;;;;2.13;1.80;;;15.70;67.40;;;;;;5034528;28;20038;-66
2021/10/07 12:56:55;;;;;;;3.47;2.05;;;15.70;67.10;;;;;;5038336;28;20039;-66